createdAt,value
2018-09-15T00:04:16.984Z,7.90
2018-09-15T00:09:20.651Z,7.90
2018-09-15T00:14:25.017Z,7.73
2018-09-15T00:19:29.614Z,7.77
2018-09-15T00:24:33.265Z,7.43
2018-09-15T00:29:37.017Z,6.60
2018-09-15T00:34:41.393Z,6.80
2018-09-15T00:39:45.524Z,7.13
2018-09-15T00:44:49.202Z,7.00
2018-09-15T00:49:52.871Z,6.83
2018-09-15T00:54:56.482Z,7.90
2018-09-15T01:00:00.110Z,6.93
2018-09-15T01:05:04.263Z,7.10
2018-09-15T01:10:08.044Z,7.53
2018-09-15T01:15:14.375Z,10.20
2018-09-15T01:20:20.656Z,10.57
2018-09-15T01:25:24.564Z,12.03
2018-09-15T01:30:28.140Z,10.43
2018-09-15T01:35:31.981Z,10.73
2018-09-15T01:40:35.636Z,11.27
2018-09-15T01:45:39.263Z,10.67
2018-09-15T01:50:43.073Z,10.03
2018-09-15T01:55:46.690Z,11.77
2018-09-15T02:00:50.312Z,10.50
2018-09-15T02:05:53.935Z,10.70
2018-09-15T02:10:57.555Z,10.00
2018-09-15T02:16:01.180Z,11.80
2018-09-15T02:21:04.807Z,13.20
2018-09-15T02:26:08.787Z,13.30
2018-09-15T02:31:12.372Z,13.50
2018-09-15T02:36:19.252Z,13.77
2018-09-15T02:41:22.832Z,14.73
2018-09-15T02:46:26.383Z,15.00
2018-09-15T02:56:39.404Z,15.97
2018-09-15T03:01:43.693Z,15.70
2018-09-15T03:06:49.277Z,16.00
2018-09-15T03:11:52.923Z,15.90
2018-09-15T03:16:56.625Z,16.60
2018-09-15T03:22:00.219Z,16.43
2018-09-15T03:27:03.820Z,15.30
2018-09-15T03:32:07.464Z,15.77
2018-09-15T03:37:12.983Z,15.40
2018-09-15T03:42:16.978Z,15.33
2018-09-15T03:47:21.295Z,16.43
2018-09-15T03:52:24.966Z,15.13
2018-09-15T03:57:28.545Z,15.80
2018-09-15T04:02:55.977Z,16.20
2018-09-15T04:08:00.316Z,14.60
2018-09-15T04:13:03.998Z,14.50
2018-09-15T04:18:07.971Z,14.87
2018-09-15T04:23:17.693Z,15.23
2018-09-15T04:28:21.609Z,15.00
2018-09-15T04:33:25.723Z,14.77
2018-09-15T04:38:29.779Z,14.20
2018-09-15T04:43:33.379Z,13.87
2018-09-15T04:48:36.966Z,15.50
2018-09-15T04:53:40.695Z,14.80
2018-09-15T04:58:44.357Z,15.00
2018-09-15T05:03:48.116Z,14.27
2018-09-15T05:08:51.940Z,14.10
2018-09-15T05:13:55.547Z,14.50
2018-09-15T05:18:59.356Z,14.67
2018-09-15T05:24:03.188Z,15.10
2018-09-15T05:29:06.827Z,15.00
2018-09-15T05:34:10.487Z,13.97
2018-09-15T05:39:14.903Z,13.60
2018-09-15T05:44:18.483Z,15.93
2018-09-15T05:49:22.068Z,14.97
2018-09-15T05:54:25.836Z,14.33
2018-09-15T05:59:29.423Z,15.40
2018-09-15T06:04:33.151Z,14.70
2018-09-15T06:09:36.807Z,15.70
2018-09-15T06:14:40.398Z,14.53
2018-09-15T06:19:43.971Z,14.90
2018-09-15T06:24:47.956Z,14.70
2018-09-15T06:29:51.563Z,15.00
2018-09-15T06:34:55.169Z,16.23
2018-09-15T06:39:58.787Z,14.83
2018-09-15T06:45:02.647Z,14.87
2018-09-15T06:50:06.558Z,14.57
2018-09-15T06:55:10.191Z,15.17
2018-09-15T07:00:15.550Z,15.20
2018-09-15T07:05:19.267Z,14.60
2018-09-15T07:10:23.803Z,14.30
2018-09-15T07:15:27.416Z,14.43
2018-09-15T07:20:31.493Z,14.13
2018-09-15T07:25:36.824Z,13.90
2018-09-15T07:30:41.086Z,13.27
2018-09-15T07:35:44.640Z,12.83
2018-09-15T07:40:48.931Z,13.90
2018-09-15T07:45:52.635Z,12.53
2018-09-15T07:50:56.208Z,11.10
2018-09-15T07:56:00.081Z,12.00
2018-09-15T08:01:03.703Z,11.00
2018-09-15T08:06:07.413Z,10.60
2018-09-15T08:11:11.170Z,10.67
2018-09-15T08:16:16.030Z,10.47
2018-09-15T08:21:22.444Z,10.57
2018-09-15T08:26:28.000Z,9.87
2018-09-15T08:31:34.764Z,9.70
2018-09-15T08:36:39.682Z,11.67
2018-09-15T08:41:43.302Z,10.90
2018-09-15T08:46:47.249Z,9.70
2018-09-15T08:51:51.598Z,9.83
2018-09-15T08:56:55.282Z,10.33
2018-09-15T09:01:59.169Z,9.70
2018-09-15T09:07:02.852Z,9.40
2018-09-15T09:12:07.891Z,9.50
2018-09-15T09:17:11.542Z,10.00
2018-09-15T09:22:15.363Z,11.20
2018-09-15T09:27:19.352Z,10.90
2018-09-15T09:32:23.311Z,9.20
2018-09-15T09:37:27.883Z,8.80
2018-09-15T09:42:33.027Z,8.57
2018-09-15T09:47:36.639Z,8.87
2018-09-15T09:52:41.005Z,7.87
2018-09-15T09:57:44.895Z,8.77
2018-09-15T10:02:49.511Z,8.10
2018-09-15T10:07:54.379Z,7.80
2018-09-15T10:12:59.403Z,8.47
2018-09-15T10:18:02.999Z,9.13
2018-09-15T10:23:07.801Z,7.77
2018-09-15T10:28:11.491Z,7.20
2018-09-15T10:33:15.099Z,7.93
2018-09-15T10:38:18.704Z,6.80
2018-09-15T10:43:24.260Z,6.83
2018-09-15T10:48:27.917Z,9.30
2018-09-15T10:53:31.526Z,7.57
2018-09-15T10:58:35.144Z,7.43
2018-09-15T11:03:39.103Z,7.53
2018-09-15T11:08:42.887Z,8.13
2018-09-15T11:13:46.668Z,8.67
2018-09-15T11:18:50.262Z,18.43
2018-09-15T11:23:53.854Z,7.03
2018-09-15T11:28:57.548Z,6.93
2018-09-15T11:34:01.493Z,7.20
2018-09-15T11:39:07.918Z,6.83
2018-09-15T11:44:11.892Z,6.80
2018-09-15T11:49:15.877Z,6.67
2018-09-15T11:54:19.727Z,6.07
2018-09-15T11:59:23.356Z,7.60
2018-09-15T12:04:26.951Z,6.47
2018-09-15T12:09:30.604Z,5.50
2018-09-15T12:14:34.259Z,6.10
2018-09-15T12:19:37.855Z,5.77
2018-09-15T12:24:41.466Z,6.60
2018-09-15T12:29:45.127Z,5.63
2018-09-15T12:34:48.707Z,5.40
2018-09-15T12:39:52.719Z,6.20
2018-09-15T12:44:56.495Z,5.40
2018-09-15T12:50:00.075Z,5.07
2018-09-15T12:55:04.717Z,5.07
2018-09-15T13:00:08.494Z,5.27
2018-09-15T13:05:13.133Z,5.13
2018-09-15T13:10:16.751Z,4.70
2018-09-15T13:15:21.151Z,4.37
2018-09-15T13:20:24.758Z,5.40
2018-09-15T13:25:28.458Z,5.60
2018-09-15T13:30:32.965Z,4.47
2018-09-15T13:35:36.824Z,4.27
2018-09-15T13:40:40.956Z,3.87
2018-09-15T13:46:00.271Z,4.70
2018-09-15T13:51:07.442Z,3.83
2018-09-15T13:56:14.989Z,5.63
2018-09-15T14:01:22.541Z,5.00
2018-09-15T14:06:26.462Z,4.50
2018-09-15T14:11:30.147Z,4.60
2018-09-15T14:16:34.012Z,4.03
2018-09-15T14:21:40.526Z,4.67
2018-09-15T14:26:44.258Z,5.07
2018-09-15T14:31:49.418Z,4.83
2018-09-15T14:36:53.214Z,4.00
2018-09-15T14:42:11.306Z,3.97
2018-09-15T14:47:14.919Z,3.90
2018-09-15T14:52:18.687Z,4.10
2018-09-15T14:57:22.022Z,3.80
2018-09-15T15:02:25.639Z,4.27
2018-09-15T15:07:29.963Z,4.10
2018-09-15T15:12:33.775Z,3.90
2018-09-15T15:17:38.963Z,5.27
2018-09-15T15:22:43.285Z,4.00
2018-09-15T15:27:47.714Z,4.10
2018-09-15T15:32:51.368Z,4.87
2018-09-15T15:37:56.987Z,4.37
2018-09-15T15:43:01.151Z,3.43
2018-09-15T15:48:05.527Z,4.10
2018-09-15T15:53:09.243Z,7.27
2018-09-15T15:58:28.604Z,4.90
2018-09-15T16:03:32.688Z,5.00
2018-09-15T16:08:36.414Z,9.00
2018-09-15T16:13:40.145Z,5.50
2018-09-15T16:18:44.524Z,17.33
2018-09-15T16:23:48.811Z,8.67
2018-09-15T16:28:55.817Z,46.90
2018-09-15T16:34:00.785Z,63.93
2018-09-15T16:39:06.923Z,10.10
2018-09-15T16:44:16.567Z,16.00
2018-09-15T16:49:21.680Z,5.47
2018-09-15T16:54:26.717Z,5.57
2018-09-15T16:59:30.504Z,7.37
2018-09-15T17:04:34.552Z,5.90
2018-09-15T17:09:38.660Z,5.37
2018-09-15T17:14:42.811Z,5.10
2018-09-15T17:19:47.716Z,6.00
2018-09-15T17:24:52.908Z,5.33
2018-09-15T17:29:57.420Z,5.50
2018-09-15T17:35:01.583Z,45.40
2018-09-15T17:40:06.064Z,117.27
2018-09-15T17:45:10.181Z,40.20
2018-09-15T17:50:14.361Z,24.37
2018-09-15T17:55:24.344Z,24.37
2018-09-15T18:00:28.077Z,13.40
2018-09-15T18:05:31.708Z,6.80
2018-09-15T18:10:35.520Z,6.80
2018-09-15T18:15:39.490Z,7.20
2018-09-15T18:20:53.811Z,6.60
2018-09-15T18:25:57.546Z,7.40
2018-09-15T18:31:02.358Z,11.47
2018-09-15T18:36:06.264Z,16.27
2018-09-15T18:41:10.047Z,11.50
2018-09-15T18:46:14.924Z,7.10
2018-09-15T18:51:18.599Z,6.40
2018-09-15T18:56:22.964Z,5.37
2018-09-15T19:01:26.937Z,4.10
2018-09-15T19:06:31.015Z,4.30
2018-09-15T19:11:34.708Z,3.57
2018-09-15T19:16:38.877Z,4.00
2018-09-15T19:21:43.475Z,4.20
2018-09-15T19:26:49.059Z,4.93
2018-09-15T19:31:52.728Z,6.07
2018-09-15T19:36:56.392Z,3.97
2018-09-15T19:42:00.236Z,3.20
2018-09-15T19:47:04.081Z,5.57
2018-09-15T19:52:07.671Z,3.03
2018-09-15T19:57:14.843Z,3.40
2018-09-15T20:02:18.439Z,4.50
2018-09-15T20:07:22.701Z,4.50
2018-09-15T20:12:26.296Z,4.13
2018-09-15T20:17:28.708Z,3.97
2018-09-15T20:22:32.311Z,3.97
2018-09-15T20:27:35.988Z,4.07
2018-09-15T20:32:39.662Z,3.80
2018-09-15T20:37:43.304Z,4.20
2018-09-15T20:42:47.092Z,3.80
2018-09-15T20:47:51.555Z,4.27
2018-09-15T20:52:55.296Z,3.67
2018-09-15T20:58:05.444Z,3.90
2018-09-15T21:03:09.997Z,4.00
2018-09-15T21:08:13.752Z,4.33
2018-09-15T21:13:17.526Z,3.63
2018-09-15T21:18:21.139Z,4.00
2018-09-15T21:23:24.779Z,4.10
2018-09-15T21:28:28.418Z,3.80
2018-09-15T21:33:32.047Z,3.90
2018-09-15T21:38:35.644Z,3.90
2018-09-15T21:43:39.880Z,4.07
2018-09-15T21:48:43.546Z,4.57
2018-09-15T21:53:47.113Z,3.97
2018-09-15T21:58:51.603Z,4.43
2018-09-15T22:04:00.618Z,4.70
2018-09-15T22:09:11.106Z,4.17
2018-09-15T22:14:14.868Z,4.53
2018-09-15T22:19:19.515Z,4.10
2018-09-15T22:24:25.076Z,5.30
2018-09-15T22:29:30.270Z,4.87
2018-09-15T22:34:34.858Z,5.40
2018-09-15T22:39:40.056Z,5.13
2018-09-15T22:44:44.524Z,4.93
2018-09-15T22:49:48.253Z,4.33
2018-09-15T22:54:52.613Z,4.80
2018-09-15T22:59:56.923Z,5.10
2018-09-15T23:05:01.611Z,5.13
2018-09-15T23:10:08.314Z,5.30
2018-09-15T23:15:13.066Z,5.57
2018-09-15T23:20:17.805Z,5.17
2018-09-15T23:25:22.132Z,5.53
2018-09-15T23:30:26.683Z,5.17
2018-09-15T23:35:31.926Z,4.70
2018-09-15T23:40:37.234Z,4.30
2018-09-15T23:45:42.764Z,4.90
2018-09-15T23:50:46.742Z,4.10
2018-09-15T23:55:51.035Z,5.67
